Time;durP1;ratioP1;P1;durP2;ratioP2;P2;SDS_P1;SDS_P2;PMS_P1;PMS_P2;Temp;Humidity;BMP_temperature;BMP_pressure;BME280_temperature;BME280_humidity;BME280_pressure;Samples;Min_cycle;Max_cycle;Signal;HPM_P1;HPM_P2
2021/01/25 00:01:50;;;;;;;30.30;19.10;;;;;;;1.32;100.00;99088.47;5222833;28;20025;-82
2021/01/25 00:04:20;;;;;;;31.58;20.20;;;;;;;1.30;100.00;99085.06;5214860;28;20025;-80
2021/01/25 00:06:50;;;;;;;36.60;20.98;;;;;;;1.33;100.00;99084.16;5222791;28;20545;-81
2021/01/25 00:09:21;;;;;;;34.70;21.92;;;;;;;1.34;100.00;99078.97;5221987;28;20049;-79
2021/01/25 00:11:52;;;;;;;40.08;22.33;;;;;;;1.31;100.00;99094.50;5223024;28;20108;-80
2021/01/25 00:14:22;;;;;;;33.53;20.35;;;;;;;1.38;100.00;99090.88;5222494;28;20067;-80
2021/01/25 00:16:52;;;;;;;34.65;21.27;;;;;;;1.38;100.00;99090.88;5223264;28;20024;-78
2021/01/25 00:19:22;;;;;;;33.78;20.85;;;;;;;1.38;100.00;99087.47;5203872;28;20029;-78
2021/01/25 00:21:53;;;;;;;35.00;21.95;;;;;;;1.31;100.00;99089.34;5222211;28;20053;-78
2021/01/25 00:24:23;;;;;;;38.28;23.00;;;;;;;1.28;100.00;99091.13;5222325;28;20104;-78
2021/01/25 00:26:53;;;;;;;35.45;22.50;;;;;;;1.25;100.00;99086.06;5222747;28;20025;-81
2021/01/25 00:29:23;;;;;;;36.63;22.35;;;;;;;1.24;100.00;99089.50;5222535;28;20060;-82
2021/01/25 00:31:54;;;;;;;40.97;22.83;;;;;;;1.19;100.00;99092.19;5222156;28;20044;-80
2021/01/25 00:34:25;;;;;;;40.90;23.48;;;;;;;1.21;100.00;99090.41;5222090;28;20394;-81
2021/01/25 00:36:55;;;;;;;42.70;23.88;;;;;;;1.26;100.00;99092.91;5222341;28;20024;-79
2021/01/25 00:39:26;;;;;;;43.15;24.05;;;;;;;1.21;100.00;99090.41;5221253;28;20056;-79
2021/01/25 00:41:56;;;;;;;40.72;23.60;;;;;;;1.19;100.00;99102.47;5222303;28;20035;-81
2021/01/25 00:44:26;;;;;;;41.53;24.65;;;;;;;1.26;100.00;99088.56;5218257;28;20214;-80
2021/01/25 00:46:57;;;;;;;41.40;24.98;;;;;;;1.32;100.00;99092.75;5222416;28;20095;-79
2021/01/25 00:49:27;;;;;;;41.67;25.85;;;;;;;1.39;100.00;99086.59;5218122;28;20028;-79
2021/01/25 00:51:57;;;;;;;37.63;23.00;;;;;;;1.56;100.00;99093.03;5222600;28;20108;-78
2021/01/25 00:54:27;;;;;;;38.65;23.85;;;;;;;1.48;100.00;99094.09;5222293;28;20029;-81
2021/01/25 00:56:57;;;;;;;42.90;25.00;;;;;;;1.51;100.00;99089.72;5222462;28;20032;-78
2021/01/25 00:59:28;;;;;;;37.70;24.58;;;;;;;1.59;100.00;99092.94;5221765;28;20025;-78
2021/01/25 01:01:58;;;;;;;42.53;25.15;;;;;;;1.63;100.00;99084.28;5220655;28;20518;-79
2021/01/25 01:04:28;;;;;;;39.17;24.45;;;;;;;1.58;100.00;99091.25;5222263;28;20033;-78
2021/01/25 01:06:58;;;;;;;39.75;24.25;;;;;;;1.66;100.00;99089.38;5222221;28;20025;-80
2021/01/25 01:09:29;;;;;;;41.42;25.10;;;;;;;1.70;100.00;99088.41;5217487;28;20036;-81
2021/01/25 01:11:59;;;;;;;42.05;24.67;;;;;;;1.76;100.00;99084.84;5229015;28;20112;-83
2021/01/25 01:14:29;;;;;;;40.00;24.00;;;;;;;1.86;100.00;99087.97;5242429;28;20242;-81
2021/01/25 01:17:00;;;;;;;39.83;24.10;;;;;;;1.67;100.00;99088.47;5243020;28;20495;-80
2021/01/25 01:19:30;;;;;;;42.22;24.63;;;;;;;1.62;100.00;99082.59;5230523;28;20581;-79
2021/01/25 01:22:00;;;;;;;41.33;24.90;;;;;;;1.64;100.00;99090.28;5222976;28;20043;-79
2021/01/25 01:24:30;;;;;;;43.17;25.48;;;;;;;1.56;100.00;99087.88;5225679;28;20048;-79
2021/01/25 01:27:01;;;;;;;42.78;25.23;;;;;;;1.51;100.00;99094.88;5226443;28;20029;-79
2021/01/25 01:29:31;;;;;;;42.55;25.50;;;;;;;1.44;100.00;99095.06;5225642;28;20076;-82
2021/01/25 01:32:02;;;;;;;40.25;24.48;;;;;;;1.46;100.00;99098.44;5225865;28;20211;-82
2021/01/25 01:34:32;;;;;;;41.63;24.90;;;;;;;1.47;100.00;99093.25;5225333;28;20486;-80
2021/01/25 01:37:02;;;;;;;44.92;26.00;;;;;;;1.47;100.00;99100.13;5224979;28;20025;-78
2021/01/25 01:39:32;;;;;;;46.60;26.38;;;;;;;1.41;100.00;99095.13;5225926;28;20514;-78
2021/01/25 01:42:03;;;;;;;42.00;24.95;;;;;;;1.40;100.00;99089.13;5225260;28;20103;-78
2021/01/25 01:44:34;;;;;;;50.22;27.05;;;;;;;1.36;100.00;99094.34;5225087;28;20652;-80
2021/01/25 01:47:04;;;;;;;45.47;27.05;;;;;;;1.45;100.00;99092.44;5225566;28;20120;-82
2021/01/25 01:49:35;;;;;;;46.35;26.45;;;;;;;1.39;100.00;99090.00;5224672;28;20036;-78
2021/01/25 01:52:06;;;;;;;41.72;25.90;;;;;;;1.47;100.00;99095.84;5225465;28;20025;-78
2021/01/25 01:54:38;;;;;;;44.42;25.73;;;;;;;1.46;100.00;99096.72;5224675;28;20074;-83
2021/01/25 01:57:09;;;;;;;44.05;25.80;;;;;;;1.53;100.00;99090.53;5225927;28;20036;-79
2021/01/25 01:59:39;;;;;;;44.83;25.67;;;;;;;1.44;100.00;99090.72;5225211;28;20037;-79
2021/01/25 02:02:09;;;;;;;46.67;26.20;;;;;;;1.32;100.00;99095.31;5224802;28;20055;-82
2021/01/25 02:04:40;;;;;;;48.40;26.95;;;;;;;1.27;100.00;99090.28;5225005;28;20083;-81
2021/01/25 02:07:11;;;;;;;47.70;27.45;;;;;;;1.23;100.00;99098.94;5224083;28;20029;-85
2021/01/25 02:09:46;;;;;;;51.53;27.83;;;;;;;1.23;100.00;99098.13;5222106;28;20033;-80
2021/01/25 02:12:19;;;;;;;46.97;27.95;;;;;;;1.31;100.00;99098.78;5225331;28;20406;-79
2021/01/25 02:14:50;;;;;;;44.70;28.42;;;;;;;1.25;100.00;99088.63;5224994;28;20049;-79
2021/01/25 02:17:20;;;;;;;49.75;27.55;;;;;;;1.25;100.00;99094.59;5225908;28;20067;-82
2021/01/25 02:20:39;;;;;;;47.45;28.55;;;;;;;1.23;100.00;99093.78;5224209;28;20103;-83
2021/01/25 02:23:25;;;;;;;48.78;26.80;;;;;;;1.21;100.00;99093.00;5193781;28;20048;-80
2021/01/25 02:26:11;;;;;;;48.25;27.35;;;;;;;1.20;100.00;99093.88;5225240;28;20119;-79
2021/01/25 02:28:42;;;;;;;45.50;25.85;;;;;;;1.21;100.00;99105.84;5225022;28;20076;-80
2021/01/25 02:31:12;;;;;;;47.65;26.02;;;;;;;1.22;100.00;99096.41;5224950;28;20053;-79
2021/01/25 02:33:49;;;;;;;50.75;27.52;;;;;;;1.14;100.00;99109.44;5223934;28;20591;-80
2021/01/25 02:36:21;;;;;;;49.00;27.35;;;;;;;1.12;100.00;99100.91;5225148;28;20573;-79
2021/01/25 02:38:53;;;;;;;46.72;27.15;;;;;;;1.12;100.00;99103.50;5221687;28;20075;-79
2021/01/25 02:41:26;;;;;;;52.60;26.42;;;;;;;1.11;100.00;99104.38;5224719;28;20020;-78
2021/01/25 02:43:58;;;;;;;48.00;27.27;;;;;;;1.10;100.00;99102.66;5206609;28;20480;-84
2021/01/25 02:46:30;;;;;;;44.33;25.75;;;;;;;1.18;100.00;99100.78;5225166;28;20031;-83
2021/01/25 02:49:00;;;;;;;45.65;25.88;;;;;;;1.18;100.00;99100.78;5223364;28;20029;-82
2021/01/25 02:51:31;;;;;;;44.60;26.13;;;;;;;1.14;100.00;99109.44;5224735;28;20088;-84
2021/01/25 02:54:01;;;;;;;44.88;26.25;;;;;;;1.22;100.00;99117.00;5224363;28;20017;-81
2021/01/25 02:56:31;;;;;;;43.97;25.75;;;;;;;1.23;100.00;99109.22;5224729;28;20025;-80
2021/01/25 02:59:02;;;;;;;44.95;26.77;;;;;;;1.17;100.00;99119.66;5224327;28;20063;-79
2021/01/25 03:01:32;;;;;;;49.03;26.88;;;;;;;1.05;100.00;99122.50;5218580;28;20499;-79
2021/01/25 03:04:05;;;;;;;52.25;27.38;;;;;;;1.01;100.00;99123.44;5205793;28;20037;-81
2021/01/25 03:06:35;;;;;;;46.40;26.10;;;;;;;1.14;100.00;99119.75;5224485;28;20128;-83
2021/01/25 03:09:05;;;;;;;45.47;25.48;;;;;;;1.15;100.00;99118.00;5206855;28;20523;-79
2021/01/25 03:11:41;;;;;;;47.60;25.70;;;;;;;1.10;100.00;99117.25;5224552;28;20364;-79
2021/01/25 03:14:12;;;;;;;41.45;23.70;;;;;;;1.20;100.00;99121.34;5223533;28;20017;-79
2021/01/25 03:16:42;;;;;;;47.90;25.48;;;;;;;1.19;100.00;99123.03;5224531;28;20549;-78
2021/01/25 03:19:12;;;;;;;44.70;25.35;;;;;;;1.17;100.00;99118.81;5223208;28;20522;-78
2021/01/25 03:21:51;;;;;;;43.72;24.63;;;;;;;1.04;100.00;99122.53;5223882;28;20047;-78
2021/01/25 03:24:21;;;;;;;50.63;25.80;;;;;;;0.97;100.00;99126.09;5223806;28;20021;-81
2021/01/25 03:26:52;;;;;;;53.05;26.73;;;;;;;1.01;100.00;99131.16;5222901;28;20027;-82
2021/01/25 03:29:22;;;;;;;48.58;26.15;;;;;;;1.15;100.00;99129.16;5222839;28;20025;-81
2021/01/25 03:31:52;;;;;;;43.65;25.23;;;;;;;1.11;100.00;99121.50;5221573;28;20056;-79
2021/01/25 03:34:22;;;;;;;42.38;24.92;;;;;;;1.14;100.00;99124.88;5222641;28;20025;-80
2021/01/25 03:36:53;;;;;;;43.05;24.85;;;;;;;1.05;100.00;99131.94;5223242;28;20021;-78
2021/01/25 03:39:24;;;;;;;43.85;24.42;;;;;;;1.02;100.00;99139.69;5222644;28;20021;-79
2021/01/25 03:41:54;;;;;;;44.75;25.48;;;;;;;1.01;100.00;99138.00;5222961;28;20027;-81
2021/01/25 03:44:24;;;;;;;46.45;25.27;;;;;;;0.91;100.00;99132.19;5219536;28;20075;-82
2021/01/25 03:46:55;;;;;;;43.88;25.08;;;;;;;1.02;100.00;99140.56;5223088;28;20112;-82
2021/01/25 03:49:25;;;;;;;47.63;25.95;;;;;;;0.95;100.00;99144.16;5222653;28;20083;-82
2021/01/25 03:51:55;;;;;;;47.67;24.40;;;;;;;0.99;100.00;99134.63;5222917;28;20029;-83
2021/01/25 03:54:25;;;;;;;41.00;24.33;;;;;;;1.09;100.00;99147.25;5223034;28;20032;-80
2021/01/25 03:56:56;;;;;;;42.90;23.83;;;;;;;1.26;100.00;99142.59;5222992;28;20021;-82
2021/01/25 03:59:26;;;;;;;43.25;24.15;;;;;;;1.27;100.00;99148.59;5222723;28;20472;-80
2021/01/25 04:01:56;;;;;;;44.42;24.45;;;;;;;1.24;100.00;99143.53;5223754;28;20029;-80
2021/01/25 04:04:27;;;;;;;42.78;24.33;;;;;;;1.14;100.00;99142.88;5219229;28;20124;-81
2021/01/25 04:06:57;;;;;;;45.92;25.02;;;;;;;1.22;100.00;99147.88;5223213;28;20415;-81
2021/01/25 04:09:27;;;;;;;43.40;24.08;;;;;;;1.16;100.00;99148.84;5222692;28;20067;-79
2021/01/25 04:11:58;;;;;;;46.38;24.42;;;;;;;1.17;100.00;99144.53;5223176;28;20048;-79
2021/01/25 04:14:28;;;;;;;43.97;24.35;;;;;;;1.21;100.00;99144.44;5222944;28;20025;-81
2021/01/25 04:16:58;;;;;;;40.60;23.38;;;;;;;1.19;100.00;99138.47;5222855;28;20451;-80
2021/01/25 04:19:29;;;;;;;48.42;24.88;;;;;;;1.20;100.00;99145.31;5221733;28;20146;-78
2021/01/25 04:21:59;;;;;;;43.33;24.05;;;;;;;1.25;100.00;99150.38;5222757;28;20028;-78
2021/01/25 04:24:29;;;;;;;40.33;22.85;;;;;;;1.29;100.00;99152.84;5222090;28;20503;-79
2021/01/25 04:26:59;;;;;;;40.92;23.65;;;;;;;1.28;100.00;99158.00;5221724;28;20040;-86
2021/01/25 04:29:30;;;;;;;40.40;22.67;;;;;;;1.42;100.00;99156.81;5222590;28;20048;-82
2021/01/25 04:32:00;;;;;;;39.08;22.50;;;;;;;1.27;100.00;99157.16;5222765;28;20024;-83
2021/01/25 04:34:31;;;;;;;39.97;22.17;;;;;;;1.28;100.00;99152.88;5222482;28;20039;-82
2021/01/25 04:37:02;;;;;;;40.38;22.65;;;;;;;1.34;100.00;99158.72;5222679;28;20375;-79
2021/01/25 04:39:32;;;;;;;38.45;23.38;;;;;;;1.25;100.00;99158.09;5221652;28;20115;-81
2021/01/25 04:42:04;;;;;;;36.88;22.00;;;;;;;1.17;100.00;99160.81;5222766;28;20463;-79
2021/01/25 04:44:36;;;;;;;43.05;22.50;;;;;;;1.17;100.00;99167.66;5222386;28;20028;-82
2021/01/25 04:47:07;;;;;;;42.80;22.50;;;;;;;1.14;100.00;99163.47;5222544;28;20031;-79
2021/01/25 04:49:41;;;;;;;35.40;21.08;;;;;;;1.06;100.00;99162.75;5220775;28;20098;-82
2021/01/25 04:52:13;;;;;;;36.47;21.95;;;;;;;1.17;100.00;99168.53;5222111;28;20025;-79
2021/01/25 04:54:45;;;;;;;37.28;21.05;;;;;;;1.45;100.00;99171.38;5221779;28;20017;-79
2021/01/25 04:57:16;;;;;;;38.85;21.52;;;;;;;1.27;100.00;99175.16;5214702;28;20021;-80
2021/01/25 04:59:48;;;;;;;39.00;21.92;;;;;;;1.24;100.00;99177.81;5221769;28;20086;-79
2021/01/25 05:02:19;;;;;;;39.42;21.88;;;;;;;1.15;100.00;99172.88;5222232;28;20043;-78
2021/01/25 05:04:49;;;;;;;41.05;22.20;;;;;;;1.08;100.00;99173.03;5221685;28;20033;-80
2021/01/25 05:07:19;;;;;;;36.75;20.92;;;;;;;1.18;100.00;99169.38;5222574;28;20033;-82
2021/01/25 05:09:50;;;;;;;38.88;22.10;;;;;;;1.23;100.00;99177.84;5221894;28;20170;-80
2021/01/25 05:12:20;;;;;;;37.72;21.20;;;;;;;1.19;100.00;99174.50;5222686;28;20060;-80
2021/01/25 05:14:50;;;;;;;37.42;20.27;;;;;;;1.10;100.00;99184.94;5222247;28;20078;-78
2021/01/25 05:17:24;;;;;;;35.55;21.17;;;;;;;1.05;100.00;99185.94;5222657;28;20044;-78
2021/01/25 05:19:57;;;;;;;35.92;20.88;;;;;;;0.95;100.00;99182.72;5221001;28;20024;-78
2021/01/25 05:22:28;;;;;;;42.38;21.63;;;;;;;0.90;100.00;99187.06;5221353;28;20056;-87
2021/01/25 05:24:58;;;;;;;36.30;20.55;;;;;;;0.98;100.00;99185.22;5221429;28;20571;-81
2021/01/25 05:27:29;;;;;;;42.20;21.65;;;;;;;1.00;100.00;99187.75;5221748;28;20364;-80
2021/01/25 05:30:07;;;;;;;37.05;20.73;;;;;;;0.99;100.00;99184.34;5221774;28;20107;-80
2021/01/25 05:32:57;;;;;;;40.70;21.17;;;;;;;1.02;100.00;99197.13;5221335;28;20025;-82
2021/01/25 05:35:30;;;;;;;40.95;21.10;;;;;;;0.81;100.00;99192.41;5217260;28;20024;-81
2021/01/25 05:38:07;;;;;;;37.17;20.40;;;;;;;0.98;100.00;99192.06;5222630;28;20017;-79
2021/01/25 05:40:39;;;;;;;40.78;21.65;;;;;;;0.85;100.00;99194.03;5216483;28;20120;-79
2021/01/25 05:43:14;;;;;;;37.97;21.15;;;;;;;0.95;100.00;99197.28;5221541;28;20029;-81
2021/01/25 05:45:44;;;;;;;36.28;20.23;;;;;;;0.94;100.00;99193.88;5220436;28;20622;-82
2021/01/25 05:48:14;;;;;;;36.95;20.40;;;;;;;0.80;100.00;99195.00;5221854;28;20033;-81
2021/01/25 05:50:45;;;;;;;40.38;21.67;;;;;;;0.84;100.00;99196.63;5220597;28;20060;-80
2021/01/25 05:53:15;;;;;;;39.95;20.83;;;;;;;0.80;100.00;99200.13;5221076;28;20021;-79
2021/01/25 05:55:45;;;;;;;39.85;21.02;;;;;;;0.72;100.00;99200.28;5220193;28;20100;-83
2021/01/25 05:58:16;;;;;;;35.67;20.30;;;;;;;0.65;100.00;99196.16;5221381;28;20025;-79
2021/01/25 06:00:47;;;;;;;34.88;19.20;;;;;;;0.72;100.00;99202.03;5221667;28;20044;-81
2021/01/25 06:03:17;;;;;;;42.03;20.75;;;;;;;0.73;100.00;99199.41;5228662;28;20033;-79
2021/01/25 06:05:52;;;;;;;36.63;20.98;;;;;;;0.60;100.00;99197.97;5221391;28;20118;-78
2021/01/25 06:08:40;;;;;;;38.83;19.80;;;;;;;0.58;100.00;99194.53;5223824;28;20086;-78
2021/01/25 06:11:20;;;;;;;41.42;20.98;;;;;;;0.61;100.00;99202.22;5225461;28;20025;-79
2021/01/25 06:13:54;;;;;;;36.70;19.75;;;;;;;0.59;100.00;99201.38;5224784;28;20032;-80
2021/01/25 06:16:26;;;;;;;39.75;19.23;;;;;;;0.56;100.00;99204.00;5225177;28;20120;-79
2021/01/25 06:19:01;;;;;;;35.10;19.63;;;;;;;0.52;100.00;99210.06;5222467;28;20021;-81
2021/01/25 06:21:39;;;;;;;34.47;19.27;;;;;;;0.47;100.00;99208.47;5223490;28;20017;-78
2021/01/25 06:24:11;;;;;;;35.22;18.42;;;;;;;0.53;100.00;99211.78;5222997;28;20361;-80
2021/01/25 06:26:47;;;;;;;33.88;18.20;;;;;;;0.45;100.00;99213.63;5224782;28;20455;-81
2021/01/25 06:29:18;;;;;;;35.35;18.30;;;;;;;0.42;100.00;99216.22;5223822;28;20043;-80
2021/01/25 06:31:55;;;;;;;35.53;18.23;;;;;;;0.55;100.00;99210.03;5224416;28;20623;-79
2021/01/25 06:34:26;;;;;;;33.10;18.08;;;;;;;0.25;100.00;99219.97;5224137;28;20438;-80
2021/01/25 06:36:56;;;;;;;35.83;18.80;;;;;;;0.26;100.00;99213.97;5224923;28;20029;-78
2021/01/25 06:39:29;;;;;;;37.40;18.65;;;;;;;0.25;100.00;99225.94;5219633;28;20108;-79
2021/01/25 06:42:04;;;;;;;31.08;17.15;;;;;;;0.22;100.00;99218.28;5224630;28;20687;-78
2021/01/25 06:44:36;;;;;;;34.22;18.35;;;;;;;0.15;100.00;99221.84;5223720;28;20068;-78
2021/01/25 06:47:06;;;;;;;35.75;19.77;;;;;;;0.10;100.00;99223.66;5212971;28;20646;-79
2021/01/25 06:49:37;;;;;;;39.92;20.25;;;;;;;0.07;100.00;99221.09;5224080;28;20075;-80
2021/01/25 06:52:11;;;;;;;44.33;20.67;;;;;;;0.09;100.00;99228.78;5224186;28;20798;-78
2021/01/25 06:54:44;;;;;;;40.22;19.00;;;;;;;0.07;100.00;99231.38;5224610;28;20059;-78
2021/01/25 06:57:25;;;;;;;39.88;19.58;;;;;;;0.09;100.00;99229.66;5223183;28;20020;-78
2021/01/25 06:59:56;;;;;;;42.08;18.90;;;;;;;0.10;100.00;99231.34;5223813;28;20056;-78
2021/01/25 07:02:26;;;;;;;35.60;17.70;;;;;;;0.12;100.00;99239.00;5224299;28;20098;-78
2021/01/25 07:04:58;;;;;;;34.78;17.83;;;;;;;0.10;100.00;99236.50;5223621;28;20029;-78
2021/01/25 07:07:30;;;;;;;35.50;18.08;;;;;;;0.08;100.00;99256.19;5224388;28;20471;-78
2021/01/25 07:10:06;;;;;;;37.13;18.08;;;;;;;0.07;100.00;99259.63;5224057;28;20021;-78
2021/01/25 07:12:37;;;;;;;34.95;17.55;;;;;;;0.05;100.00;99258.78;5223704;28;20033;-78
2021/01/25 07:15:10;;;;;;;33.33;16.38;;;;;;;0.22;100.00;99251.69;5223527;28;20053;-78
2021/01/25 07:17:40;;;;;;;31.65;17.00;;;;;;;0.10;100.00;99257.03;5223948;28;20108;-79
2021/01/25 07:20:12;;;;;;;33.63;17.38;;;;;;;0.11;100.00;99263.84;5226351;28;20127;-78
2021/01/25 07:22:43;;;;;;;31.00;16.38;;;;;;;0.12;100.00;99260.41;5221771;28;20029;-78
2021/01/25 07:25:14;;;;;;;33.15;16.92;;;;;;;-0.03;100.00;99270.91;5221775;28;20557;-78
2021/01/25 07:27:45;;;;;;;34.10;16.85;;;;;;;0.07;100.00;99263.91;5223627;28;20029;-78
2021/01/25 07:30:17;;;;;;;32.47;17.17;;;;;;;0.02;100.00;99271.69;5223666;28;20028;-78
2021/01/25 07:32:49;;;;;;;31.90;15.93;;;;;;;0.00;100.00;99275.16;5222862;28;20036;-78
2021/01/25 07:35:19;;;;;;;36.95;18.30;;;;;;;0.00;100.00;99273.44;5222891;28;20388;-77
2021/01/25 07:37:49;;;;;;;36.65;17.65;;;;;;;0.05;100.00;99279.34;5223057;28;20060;-78
2021/01/25 07:40:23;;;;;;;31.25;17.08;;;;;;;0.01;100.00;99287.97;5222720;28;20078;-78
2021/01/25 07:42:54;;;;;;;34.47;17.48;;;;;;;0.06;100.00;99291.31;5223088;28;20036;-78
2021/01/25 07:45:24;;;;;;;34.10;17.30;;;;;;;0.07;100.00;99294.72;5222738;28;20025;-81
2021/01/25 07:47:55;;;;;;;30.20;16.52;;;;;;;0.01;100.00;99294.84;5223264;28;20036;-79
2021/01/25 07:50:26;;;;;;;32.03;16.67;;;;;;;0.05;100.00;99306.75;5223080;28;20035;-78
2021/01/25 07:53:04;;;;;;;36.22;17.02;;;;;;;0.28;100.00;99309.81;5222971;28;20021;-78
2021/01/25 07:55:38;;;;;;;34.67;17.77;;;;;;;0.17;100.00;99307.41;5222580;28;20025;-79
2021/01/25 07:58:10;;;;;;;31.52;17.65;;;;;;;0.18;100.00;99321.94;5218492;28;20053;-80
2021/01/25 08:00:41;;;;;;;34.05;17.13;;;;;;;0.03;100.00;99314.47;5221865;28;20033;-78
2021/01/25 08:03:15;;;;;;;30.75;16.73;;;;;;;0.00;100.00;99321.38;5221645;28;20104;-81
2021/01/25 08:05:49;;;;;;;33.50;17.33;;;;;;;-0.07;100.00;99332.59;5221937;28;20606;-80
2021/01/25 08:08:21;;;;;;;33.70;16.60;;;;;;;0.12;100.00;99323.75;5222964;28;20052;-78
2021/01/25 08:10:52;;;;;;;32.88;17.05;;;;;;;0.24;100.00;99321.84;5222569;28;20112;-78
2021/01/25 08:13:41;;;;;;;30.42;16.95;;;;;;;0.72;100.00;99323.66;5222876;28;20140;-77
2021/01/25 08:16:16;;;;;;;32.13;16.52;;;;;;;0.76;100.00;99338.16;5223602;28;20047;-79
2021/01/25 08:18:58;;;;;;;;;;;;;;;0.65;100.00;99329.78;5222337;28;20041;-79
2021/01/25 08:21:34;;;;;;;25.48;14.25;;;;;;;0.45;100.00;99341.22;5222278;28;19915;-78
2021/01/25 08:24:07;;;;;;;30.05;14.90;;;;;;;0.52;100.00;99348.84;5221876;28;20028;-78
2021/01/25 08:26:38;;;;;;;31.60;15.73;;;;;;;0.84;100.00;99345.72;5225281;28;20052;-80
2021/01/25 08:29:27;;;;;;;28.73;16.35;;;;;;;0.93;100.00;99340.44;5221527;28;20157;-79
2021/01/25 08:31:57;;;;;;;27.20;15.20;;;;;;;0.64;100.00;99346.09;5222375;28;20720;-77
2021/01/25 08:34:31;;;;;;;28.35;15.85;;;;;;;0.57;100.00;99356.47;5222015;28;20032;-79
2021/01/25 08:37:07;;;;;;;29.88;15.57;;;;;;;0.70;100.00;99348.53;5222387;28;20021;-79
2021/01/25 08:39:46;;;;;;;31.55;16.45;;;;;;;0.83;100.00;99356.91;5220914;28;20030;-79
2021/01/25 08:42:31;;;;;;;31.42;16.55;;;;;;;0.72;100.00;99357.06;5221979;28;20067;-79
2021/01/25 08:45:08;;;;;;;32.50;16.48;;;;;;;0.70;100.00;99358.00;5221622;28;20028;-79
2021/01/25 08:47:39;;;;;;;35.70;18.23;;;;;;;0.77;100.00;99365.59;5219510;28;20031;-80
2021/01/25 08:50:25;;;;;;;34.10;17.60;;;;;;;0.91;100.00;99366.19;5219292;28;20487;-80
2021/01/25 08:53:04;;;;;;;;;;;;;;;1.06;100.00;99362.53;5220892;28;20104;-79
2021/01/25 08:55:40;;;;;;;29.33;16.02;;;;;;;0.77;100.00;99375.00;5219042;28;19909;-79
2021/01/25 08:58:15;;;;;;;30.80;15.85;;;;;;;1.10;100.00;99372.72;5214905;28;20124;-81
2021/01/25 09:00:48;;;;;;;30.35;16.05;;;;;;;1.46;100.00;99368.63;5218978;28;20063;-81
2021/01/25 09:03:19;;;;;;;31.73;15.07;;;;;;;1.66;100.00;99367.38;5220231;28;20033;-80
2021/01/25 09:05:51;;;;;;;30.92;15.70;;;;;;;1.77;100.00;99370.59;5221696;28;20116;-79
2021/01/25 09:08:21;;;;;;;28.50;15.88;;;;;;;1.58;100.00;99378.72;5221723;28;20017;-80
2021/01/25 09:10:52;;;;;;;28.70;15.98;;;;;;;1.81;100.00;99379.97;5203717;28;20092;-79
2021/01/25 09:13:22;;;;;;;30.15;15.35;;;;;;;1.93;100.00;99387.44;5221494;28;20017;-79
2021/01/25 09:15:52;;;;;;;26.90;15.32;;;;;;;1.47;100.00;99386.63;5222096;28;20078;-79
2021/01/25 09:18:22;;;;;;;26.63;14.32;;;;;;;1.86;100.00;99385.88;5221666;28;20180;-79
2021/01/25 09:20:53;;;;;;;25.90;14.18;;;;;;;1.85;100.00;99389.31;5220688;28;20020;-79
2021/01/25 09:23:23;;;;;;;25.88;13.75;;;;;;;1.88;100.00;99384.97;5221759;28;20117;-81
2021/01/25 09:25:54;;;;;;;25.55;14.10;;;;;;;1.68;100.00;99386.22;5220547;28;20447;-81
2021/01/25 09:28:24;;;;;;;29.42;15.55;;;;;;;1.53;100.00;99401.09;5222623;28;20116;-81
2021/01/25 09:30:54;;;;;;;31.17;15.35;;;;;;;1.51;100.00;99393.41;5221358;28;20025;-80
2021/01/25 09:33:25;;;;;;;27.08;15.25;;;;;;;1.82;100.00;99405.66;5221261;28;20056;-79
2021/01/25 09:35:55;;;;;;;30.30;15.95;;;;;;;2.26;100.00;99402.19;5221842;28;20759;-79
2021/01/25 09:38:25;;;;;;;30.65;16.67;;;;;;;2.17;100.00;99408.38;5220219;28;20419;-78
2021/01/25 09:40:55;;;;;;;24.25;15.30;;;;;;;2.38;100.00;99407.09;5221384;28;20032;-79
2021/01/25 09:43:26;;;;;;;30.02;16.05;;;;;;;2.32;100.00;99414.97;5222611;28;20028;-79
2021/01/25 09:45:56;;;;;;;26.55;15.10;;;;;;;2.64;98.38;99417.66;5224444;28;20025;-79
2021/01/25 09:48:26;;;;;;;29.25;15.27;;;;;;;2.91;95.67;99414.47;5225253;28;20495;-80
2021/01/25 09:50:57;;;;;;;29.20;14.90;;;;;;;2.94;95.32;99425.56;5224942;28;20033;-80
2021/01/25 09:53:27;;;;;;;28.42;13.98;;;;;;;3.21;95.52;99421.47;5225188;28;20086;-79
2021/01/25 09:55:57;;;;;;;30.00;14.52;;;;;;;3.31;94.96;99417.75;5224558;28;20028;-78
2021/01/25 09:58:28;;;;;;;26.83;14.82;;;;;;;3.41;93.51;99426.97;5225100;28;20521;-78
2021/01/25 10:00:58;;;;;;;26.52;15.18;;;;;;;3.20;94.30;99427.53;5220086;28;20044;-79
2021/01/25 10:03:28;;;;;;;30.25;16.73;;;;;;;3.55;92.53;99428.31;5223829;28;20025;-79
2021/01/25 10:05:59;;;;;;;26.90;14.18;;;;;;;3.50;91.45;99434.50;5224387;28;20112;-80
2021/01/25 10:08:29;;;;;;;22.35;13.00;;;;;;;3.75;91.50;99429.47;5224820;28;20064;-80
2021/01/25 10:10:59;;;;;;;24.00;12.50;;;;;;;4.00;90.74;99433.13;5225229;28;20040;-81
2021/01/25 10:13:30;;;;;;;21.75;12.82;;;;;;;4.08;90.53;99441.50;5224784;28;20457;-81
2021/01/25 10:16:00;;;;;;;26.00;14.43;;;;;;;4.22;87.80;99434.19;5224875;28;20388;-78
2021/01/25 10:18:30;;;;;;;19.85;11.52;;;;;;;3.93;89.79;99434.16;5224724;28;20059;-80
2021/01/25 10:21:01;;;;;;;21.55;11.77;;;;;;;4.11;89.42;99438.00;5223146;28;20070;-79
2021/01/25 10:23:31;;;;;;;23.60;13.38;;;;;;;4.34;88.52;99448.50;5224556;28;20021;-79
2021/01/25 10:26:02;;;;;;;22.17;10.43;;;;;;;4.08;87.85;99449.25;5221837;28;20064;-79
2021/01/25 10:28:32;;;;;;;21.48;10.88;;;;;;;4.36;87.91;99446.72;5224522;28;20028;-81
2021/01/25 10:31:02;;;;;;;25.73;16.48;;;;;;;4.38;87.63;99453.56;5225414;28;20033;-79
2021/01/25 10:33:32;;;;;;;22.55;12.07;;;;;;;4.08;87.08;99448.38;5223569;28;20021;-79
2021/01/25 10:36:03;;;;;;;24.65;13.23;;;;;;;4.30;88.28;99455.50;5224602;28;20146;-80
2021/01/25 10:38:33;;;;;;;26.88;15.38;;;;;;;4.23;88.80;99459.16;5222672;28;20414;-79
2021/01/25 10:41:05;;;;;;;36.40;20.17;;;;;;;4.43;88.52;99456.84;5223199;28;20046;-80
2021/01/25 10:43:35;;;;;;;33.38;18.52;;;;;;;4.50;88.87;99453.19;5222867;28;20148;-80
2021/01/25 10:46:06;;;;;;;25.75;14.95;;;;;;;4.27;88.61;99460.75;5222989;28;20111;-81
2021/01/25 10:48:36;;;;;;;26.02;14.38;;;;;;;4.50;88.58;99460.94;5222732;28;20025;-81
2021/01/25 10:51:08;;;;;;;27.55;15.27;;;;;;;4.66;88.13;99464.78;5223387;28;20028;-80
2021/01/25 10:53:38;;;;;;;31.02;16.35;;;;;;;4.47;86.82;99466.22;5222425;28;20067;-80
2021/01/25 10:56:09;;;;;;;27.63;16.50;;;;;;;4.36;88.66;99460.53;5224164;28;20052;-81
2021/01/25 10:58:39;;;;;;;42.28;24.98;;;;;;;4.75;88.55;99459.34;5223247;28;20051;-81
2021/01/25 11:01:09;;;;;;;29.45;14.52;;;;;;;4.22;89.61;99465.22;5219634;28;20059;-80
2021/01/25 11:03:40;;;;;;;25.15;14.88;;;;;;;4.46;89.80;99469.69;5225549;28;20033;-83
2021/01/25 11:06:14;;;;;;;29.70;16.02;;;;;;;5.05;88.49;99471.34;5234930;28;20112;-82
2021/01/25 11:08:45;;;;;;;23.50;13.00;;;;;;;5.21;87.52;99464.78;5233156;28;20383;-81
2021/01/25 11:11:16;;;;;;;21.58;12.15;;;;;;;4.81;87.12;99469.50;5236456;28;20052;-81
2021/01/25 11:13:46;;;;;;;19.58;11.85;;;;;;;5.05;87.27;99475.66;5228733;28;20045;-82
2021/01/25 11:16:16;;;;;;;20.15;11.10;;;;;;;5.02;85.49;99474.03;5208182;28;20043;-81
2021/01/25 11:18:48;;;;;;;17.95;10.70;;;;;;;4.86;86.72;99470.22;5207435;28;20602;-81
2021/01/25 11:21:18;;;;;;;20.95;10.43;;;;;;;5.22;86.50;99470.81;5224406;28;20036;-81
2021/01/25 11:23:50;;;;;;;15.55;9.98;;;;;;;5.06;86.04;99475.63;5225102;28;20403;-81
2021/01/25 11:26:20;;;;;;;19.23;10.13;;;;;;;5.37;85.02;99475.50;5227399;28;20029;-81
2021/01/25 11:28:51;;;;;;;19.52;10.48;;;;;;;5.24;84.50;99489.72;5232884;28;20028;-82
2021/01/25 11:31:21;;;;;;;19.85;11.80;;;;;;;5.64;84.30;99480.63;5218867;28;20021;-82
2021/01/25 11:33:51;;;;;;;22.85;12.35;;;;;;;5.76;83.54;99485.41;5235370;28;20048;-83
2021/01/25 11:36:22;;;;;;;21.02;12.82;;;;;;;6.29;82.69;99481.81;5234542;28;20056;-82
2021/01/25 11:38:52;;;;;;;20.10;10.93;;;;;;;6.22;82.93;99485.56;5233426;28;20025;-82
2021/01/25 11:41:22;;;;;;;16.95;9.98;;;;;;;6.37;81.65;99487.56;5233648;28;20020;-82